Terminal Aerodrome Forecast
Issued by NWS

Home | Current Version | Previous Version | Text Only | Print | Product List | Glossary On
Versions: 1 2 3 4 5 6 7 8 9 10 11 12 13 14 15 16 17 18 19 20 21
165
FTUS43 KOAX 270536
TAFSNY
TAF
KSNY 270536Z 2706/2806 15008KT P6SM VCSH SCT025 OVC080
     FM270630 17007KT P6SM BKN080
      TEMPO 2711/2714 1SM BR OVC008
     FM272100 10012KT 5SM -RA OVC025=

USA.gov is the U.S. government's official web portal to all federal, state and local government web resources and services.